createdAt,value
2019-05-20T00:01:52.851Z,61.90
2019-05-20T00:04:30.546Z,61.70
2019-05-20T00:07:07.383Z,61.80
2019-05-20T00:09:44.703Z,61.90
2019-05-20T00:12:21.316Z,61.70
2019-05-20T00:14:59.061Z,61.90
2019-05-20T00:17:35.761Z,62.00
2019-05-20T00:20:13.938Z,61.90
2019-05-20T00:22:50.777Z,61.90
2019-05-20T00:25:27.823Z,61.80
2019-05-20T00:28:04.835Z,61.80
2019-05-20T00:30:41.588Z,61.70
2019-05-20T00:33:16.881Z,61.60
2019-05-20T00:35:54.760Z,61.80
2019-05-20T00:38:31.864Z,62.70
2019-05-20T00:41:09.194Z,61.90
2019-05-20T00:43:46.994Z,61.70
2019-05-20T00:46:25.472Z,62.00
2019-05-20T00:49:03.599Z,61.90
2019-05-20T00:51:41.748Z,62.00
2019-05-20T00:54:18.861Z,62.00
2019-05-20T00:56:55.696Z,61.70
2019-05-20T00:59:32.943Z,61.60
2019-05-20T01:02:10.538Z,61.70
2019-05-20T01:04:48.451Z,61.80
2019-05-20T01:07:23.776Z,62.00
2019-05-20T01:10:01.602Z,61.90
2019-05-20T01:12:39.786Z,62.00
2019-05-20T01:15:18.563Z,61.80
2019-05-20T01:17:55.243Z,61.90
2019-05-20T01:20:32.909Z,61.80
2019-05-20T01:23:09.715Z,61.70
2019-05-20T01:25:47.737Z,61.80
2019-05-20T01:28:24.216Z,61.80
2019-05-20T01:31:04.401Z,61.80
2019-05-20T01:33:42.312Z,62.30
2019-05-20T01:36:18.566Z,61.70
2019-05-20T01:38:55.600Z,61.80
2019-05-20T01:41:33.076Z,61.50
2019-05-20T01:44:09.282Z,61.70
2019-05-20T01:46:46.168Z,61.80
2019-05-20T01:49:23.355Z,61.50
2019-05-20T01:52:00.975Z,62.10
2019-05-20T01:54:37.524Z,61.50
2019-05-20T01:57:15.369Z,61.50
2019-05-20T01:59:52.046Z,61.40
2019-05-20T02:02:29.325Z,61.30
2019-05-20T02:05:06.461Z,61.30
2019-05-20T02:07:43.476Z,61.20
2019-05-20T02:10:20.227Z,61.30
2019-05-20T02:12:57.681Z,60.90
2019-05-20T02:15:42.029Z,61.40
2019-05-20T02:18:18.866Z,61.00
2019-05-20T02:20:56.758Z,61.30
2019-05-20T02:23:34.385Z,61.20
2019-05-20T02:26:11.969Z,61.20
2019-05-20T02:28:49.730Z,61.20
2019-05-20T02:31:26.956Z,61.20
2019-05-20T02:34:04.898Z,61.40
2019-05-20T02:36:42.342Z,61.40
2019-05-20T02:39:19.778Z,61.40
2019-05-20T02:41:56.955Z,61.40
2019-05-20T02:44:33.275Z,61.30
2019-05-20T02:47:10.580Z,61.40
2019-05-20T02:49:47.761Z,61.50
2019-05-20T02:52:25.136Z,61.40
2019-05-20T02:55:02.090Z,61.50
2019-05-20T02:57:39.913Z,61.30
2019-05-20T03:00:17.988Z,61.50
2019-05-20T03:02:53.464Z,61.60
2019-05-20T03:05:33.360Z,61.60
2019-05-20T03:08:10.022Z,61.50
2019-05-20T03:10:47.205Z,61.80
2019-05-20T03:13:25.149Z,62.10
2019-05-20T03:16:02.653Z,61.80
2019-05-20T03:18:40.386Z,61.80
2019-05-20T03:21:17.406Z,61.70
2019-05-20T03:23:54.580Z,61.50
2019-05-20T03:26:31.091Z,61.40
2019-05-20T03:29:07.444Z,61.60
2019-05-20T03:31:44.977Z,62.20
2019-05-20T03:34:43.923Z,61.20
2019-05-20T03:36:59.784Z,61.20
2019-05-20T03:39:37.815Z,61.40
2019-05-20T03:42:15.700Z,61.60
2019-05-20T03:44:53.637Z,61.30
2019-05-20T03:47:30.584Z,61.60
2019-05-20T03:50:08.671Z,61.50
2019-05-20T03:52:47.156Z,61.40
2019-05-20T03:55:25.497Z,61.40
2019-05-20T03:58:03.730Z,61.50
2019-05-20T04:00:49.258Z,61.50
2019-05-20T04:03:26.125Z,61.40
2019-05-20T04:06:02.711Z,61.40
2019-05-20T04:08:40.057Z,61.60
2019-05-20T04:11:17.011Z,61.60
2019-05-20T04:13:55.035Z,61.40
2019-05-20T04:16:32.611Z,61.40
2019-05-20T04:19:09.530Z,61.20
2019-05-20T04:21:46.889Z,61.30
2019-05-20T04:24:24.923Z,61.40
2019-05-20T04:27:03.100Z,61.10
2019-05-20T04:29:40.508Z,61.00
2019-05-20T04:32:17.150Z,61.30
2019-05-20T04:34:53.900Z,61.40
2019-05-20T04:37:29.735Z,61.30
2019-05-20T04:40:06.564Z,61.70
2019-05-20T04:42:45.244Z,61.20
2019-05-20T04:45:22.846Z,61.10
2019-05-20T04:48:00.431Z,60.80
2019-05-20T04:50:38.452Z,60.30
2019-05-20T04:53:15.491Z,60.60
2019-05-20T04:55:53.216Z,60.60
2019-05-20T04:58:30.167Z,60.60
2019-05-20T05:01:07.989Z,60.50
2019-05-20T05:03:44.652Z,61.20
2019-05-20T05:06:22.704Z,61.00
2019-05-20T05:08:57.795Z,60.90
2019-05-20T05:11:35.818Z,60.70
2019-05-20T05:14:14.342Z,60.50
2019-05-20T05:17:04.194Z,60.50
2019-05-20T05:19:42.356Z,60.30
2019-05-20T05:22:19.462Z,60.60
2019-05-20T05:24:57.184Z,60.50
2019-05-20T05:27:34.361Z,60.80
2019-05-20T05:30:12.177Z,60.50
2019-05-20T05:32:48.991Z,61.40
2019-05-20T05:35:25.736Z,60.70
2019-05-20T05:38:01.836Z,60.50
2019-05-20T05:40:39.760Z,60.50
2019-05-20T05:43:17.059Z,60.50
2019-05-20T05:45:54.317Z,60.90
2019-05-20T05:48:30.935Z,60.40
2019-05-20T05:51:07.593Z,60.30
2019-05-20T05:53:43.484Z,60.20
2019-05-20T05:56:20.414Z,60.50
2019-05-20T05:58:55.491Z,60.20
2019-05-20T06:01:26.025Z,60.50
2019-05-20T06:03:56.476Z,60.60
2019-05-20T06:06:26.680Z,60.60
2019-05-20T06:08:57.290Z,60.50
2019-05-20T06:11:27.294Z,60.90
2019-05-20T06:13:57.624Z,60.50
2019-05-20T06:16:36.465Z,60.70
2019-05-20T06:19:00.254Z,60.60
2019-05-20T06:21:30.862Z,60.70
2019-05-20T06:24:01.242Z,60.40
2019-05-20T06:26:31.690Z,60.40
2019-05-20T06:29:03.082Z,61.30
2019-05-20T06:31:33.542Z,60.50
2019-05-20T06:34:04.136Z,60.50
2019-05-20T06:36:35.895Z,60.50
2019-05-20T06:39:11.566Z,60.60
2019-05-20T06:41:42.417Z,60.50
2019-05-20T06:44:13.737Z,60.50
2019-05-20T06:46:44.410Z,60.80
2019-05-20T06:49:16.171Z,60.80
2019-05-20T06:51:46.636Z,61.00
2019-05-20T06:54:17.952Z,61.60
2019-05-20T06:56:48.702Z,61.00
2019-05-20T06:59:19.238Z,60.90
2019-05-20T07:01:49.560Z,60.80
2019-05-20T07:04:20.195Z,60.70
2019-05-20T07:06:50.576Z,60.60
2019-05-20T07:09:20.932Z,60.70
2019-05-20T07:11:53.071Z,60.50
2019-05-20T07:14:23.088Z,60.70
2019-05-20T07:16:53.422Z,60.90
2019-05-20T07:19:25.057Z,61.70
2019-05-20T07:21:55.385Z,60.90
2019-05-20T07:24:25.900Z,61.10
2019-05-20T07:26:56.260Z,61.10
2019-05-20T07:29:26.940Z,61.00
2019-05-20T07:31:58.424Z,61.50
2019-05-20T07:34:28.812Z,61.40
2019-05-20T07:37:12.987Z,61.50
2019-05-20T07:39:43.709Z,61.70
2019-05-20T07:42:13.850Z,61.60
2019-05-20T07:44:44.160Z,61.40
2019-05-20T07:47:14.786Z,61.10
2019-05-20T07:49:45.472Z,61.40
2019-05-20T07:52:16.047Z,61.30
2019-05-20T07:54:47.176Z,61.50
2019-05-20T07:57:18.912Z,61.60
2019-05-20T07:59:51.883Z,61.60
2019-05-20T08:02:22.060Z,61.40
2019-05-20T08:04:52.387Z,61.50
2019-05-20T08:07:29.724Z,61.80
2019-05-20T08:09:54.766Z,61.50
2019-05-20T08:12:25.120Z,62.00
2019-05-20T08:14:55.457Z,61.40
2019-05-20T08:17:26.345Z,61.40
2019-05-20T08:19:56.496Z,61.90
2019-05-20T08:22:26.961Z,61.70
2019-05-20T08:24:57.536Z,61.70
2019-05-20T08:27:28.019Z,61.70
2019-05-20T08:29:58.303Z,61.80
2019-05-20T08:32:28.629Z,61.50
2019-05-20T08:34:58.834Z,61.70
2019-05-20T08:37:44.351Z,61.60
2019-05-20T08:40:01.649Z,61.30
2019-05-20T08:42:33.659Z,61.30
2019-05-20T08:45:05.230Z,61.60
2019-05-20T08:47:35.478Z,61.60
2019-05-20T08:50:13.009Z,61.60
2019-05-20T08:52:39.383Z,61.70
2019-05-20T08:55:10.181Z,61.50
2019-05-20T08:57:40.503Z,61.50
2019-05-20T09:00:18.508Z,62.40
2019-05-20T09:02:48.282Z,61.50
2019-05-20T09:05:18.412Z,61.70
2019-05-20T09:08:02.268Z,61.60
2019-05-20T09:10:20.685Z,61.50
2019-05-20T09:12:51.020Z,61.50
2019-05-20T09:15:21.304Z,61.40
2019-05-20T09:17:51.871Z,61.40
2019-05-20T09:20:22.690Z,61.10
2019-05-20T09:23:06.557Z,60.90
2019-05-20T09:25:37.344Z,61.40
2019-05-20T09:28:07.938Z,61.40
2019-05-20T09:30:39.833Z,61.40
2019-05-20T09:33:10.396Z,61.00
2019-05-20T09:35:40.780Z,60.70
2019-05-20T09:38:20.120Z,60.80
2019-05-20T09:40:49.290Z,60.80
2019-05-20T09:43:19.523Z,61.00
2019-05-20T09:46:05.757Z,61.00
2019-05-20T09:48:25.235Z,61.40
2019-05-20T09:50:54.829Z,60.60
2019-05-20T09:53:25.083Z,60.60
2019-05-20T09:55:55.272Z,60.60
2019-05-20T09:58:25.592Z,60.80
2019-05-20T10:00:55.939Z,60.90
2019-05-20T10:03:26.339Z,60.80
2019-05-20T10:05:56.545Z,60.70
2019-05-20T10:08:37.586Z,60.60
2019-05-20T10:10:59.856Z,60.90
2019-05-20T10:13:30.901Z,60.60
2019-05-20T10:16:01.245Z,60.90
2019-05-20T10:18:37.318Z,60.90
2019-05-20T10:21:03.349Z,60.80
2019-05-20T10:23:33.807Z,60.90
2019-05-20T10:26:04.203Z,60.90
2019-05-20T10:28:34.650Z,60.70
2019-05-20T10:31:05.281Z,60.60
2019-05-20T10:33:37.152Z,60.70
2019-05-20T10:36:07.240Z,60.90
2019-05-20T10:38:54.891Z,60.80
2019-05-20T10:41:09.913Z,60.60
2019-05-20T10:43:40.248Z,60.60
2019-05-20T10:46:10.531Z,60.40
2019-05-20T10:48:40.706Z,60.20
2019-05-20T10:51:12.468Z,60.20
2019-05-20T10:53:43.059Z,60.30
2019-05-20T10:56:13.743Z,59.90
2019-05-20T10:58:44.571Z,59.80
2019-05-20T11:01:34.965Z,60.00
2019-05-20T11:04:05.630Z,59.70
2019-05-20T11:06:35.959Z,60.10
2019-05-20T11:09:14.073Z,60.00
2019-05-20T11:11:39.581Z,60.00
2019-05-20T11:14:09.661Z,59.90
2019-05-20T11:16:39.924Z,59.90
2019-05-20T11:19:10.338Z,59.70
2019-05-20T11:21:40.458Z,59.90
2019-05-20T11:24:11.174Z,59.90
2019-05-20T11:26:41.525Z,59.60
2019-05-20T11:29:13.076Z,59.90
2019-05-20T11:31:43.475Z,59.70
2019-05-20T11:34:13.689Z,59.70
2019-05-20T11:36:44.228Z,59.50
2019-05-20T11:39:31.311Z,59.40
2019-05-20T11:41:53.267Z,59.40
2019-05-20T11:44:18.668Z,59.50
2019-05-20T11:46:48.903Z,59.40
2019-05-20T11:49:19.171Z,59.50
2019-05-20T11:51:49.533Z,59.60
2019-05-20T11:54:19.868Z,59.50
2019-05-20T11:56:50.763Z,59.50
2019-05-20T11:59:21.175Z,59.60
2019-05-20T12:01:51.567Z,59.80
2019-05-20T12:04:21.999Z,59.50
2019-05-20T12:06:52.432Z,59.50
2019-05-20T12:09:22.758Z,59.60
2019-05-20T12:11:53.266Z,59.60
2019-05-20T12:14:23.818Z,59.40
2019-05-20T12:16:54.185Z,59.40
2019-05-20T12:19:24.559Z,59.60
2019-05-20T12:21:55.285Z,59.60
2019-05-20T12:24:27.068Z,59.50
2019-05-20T12:26:57.289Z,59.50
2019-05-20T12:29:27.583Z,59.60
2019-05-20T12:32:11.619Z,59.40
2019-05-20T12:34:42.169Z,59.50
2019-05-20T12:37:18.740Z,59.40
2019-05-20T12:40:05.556Z,59.70
2019-05-20T12:42:21.298Z,59.50
2019-05-20T12:44:51.283Z,59.60
2019-05-20T12:47:21.502Z,59.60
2019-05-20T12:49:52.008Z,59.50
2019-05-20T12:52:22.432Z,59.50
2019-05-20T12:55:07.089Z,59.50
2019-05-20T12:57:24.606Z,59.40
2019-05-20T12:59:54.927Z,59.50
2019-05-20T13:02:25.429Z,59.60
2019-05-20T13:05:10.781Z,59.50
2019-05-20T13:07:42.088Z,59.60
2019-05-20T13:10:27.638Z,59.60
2019-05-20T13:12:44.890Z,59.60
2019-05-20T13:15:17.143Z,59.60
2019-05-20T13:17:48.689Z,59.60
2019-05-20T13:20:18.843Z,59.70
2019-05-20T13:22:49.206Z,59.70
2019-05-20T13:25:19.703Z,59.20
2019-05-20T13:27:49.808Z,59.50
2019-05-20T13:30:20.442Z,59.30
2019-05-20T13:32:51.162Z,60.10
2019-05-20T13:35:21.513Z,59.20
2019-05-20T13:37:51.874Z,59.30
2019-05-20T13:40:22.418Z,59.10
2019-05-20T13:42:53.141Z,59.10
2019-05-20T13:45:23.576Z,59.00
2019-05-20T13:47:54.213Z,59.00
2019-05-20T13:50:24.476Z,59.00
2019-05-20T13:52:56.138Z,59.20
2019-05-20T13:55:26.676Z,59.20
2019-05-20T13:57:56.947Z,59.20
2019-05-20T14:00:27.689Z,59.20
2019-05-20T14:02:57.986Z,59.20
2019-05-20T14:05:28.328Z,59.20
2019-05-20T14:07:58.663Z,59.20
2019-05-20T14:10:29.024Z,59.40
2019-05-20T14:13:00.060Z,59.10
2019-05-20T14:15:31.560Z,59.10
2019-05-20T14:18:01.961Z,59.20
2019-05-20T14:20:32.666Z,59.20
2019-05-20T14:23:03.020Z,59.10
2019-05-20T14:25:33.406Z,59.20
2019-05-20T14:28:04.266Z,59.20
2019-05-20T14:30:34.794Z,59.20
2019-05-20T14:33:05.572Z,59.00
2019-05-20T14:35:36.126Z,59.20
2019-05-20T14:38:06.422Z,59.10
2019-05-20T14:40:36.855Z,59.10
2019-05-20T14:43:07.413Z,59.20
2019-05-20T14:45:37.772Z,59.20
2019-05-20T14:48:08.084Z,59.10
2019-05-20T14:50:38.266Z,59.00
2019-05-20T14:53:08.550Z,58.90
2019-05-20T14:55:42.706Z,58.90
2019-05-20T14:58:12.331Z,59.00
2019-05-20T15:00:42.657Z,59.00
2019-05-20T15:03:13.188Z,58.90
2019-05-20T15:05:43.737Z,58.90
2019-05-20T15:08:14.175Z,59.00
2019-05-20T15:10:44.574Z,59.00
2019-05-20T15:13:15.062Z,58.90
2019-05-20T15:15:48.268Z,58.80
2019-05-20T15:18:18.353Z,58.90
2019-05-20T15:20:48.856Z,58.90
2019-05-20T15:23:19.276Z,58.90
2019-05-20T15:25:49.705Z,58.90
2019-05-20T15:28:20.336Z,58.90
2019-05-20T15:30:52.067Z,59.10
2019-05-20T15:33:23.164Z,58.90
2019-05-20T15:35:53.893Z,58.90
2019-05-20T15:38:24.039Z,58.90
2019-05-20T15:40:54.638Z,59.10
2019-05-20T15:43:24.994Z,59.00
2019-05-20T15:45:55.587Z,58.80
2019-05-20T15:48:25.818Z,58.60
2019-05-20T15:50:56.042Z,58.60
2019-05-20T15:53:25.950Z,58.60
2019-05-20T15:55:56.686Z,58.40
2019-05-20T15:58:27.068Z,58.60
2019-05-20T16:00:57.793Z,58.50
2019-05-20T16:03:28.673Z,58.60
2019-05-20T16:05:59.884Z,58.80
2019-05-20T16:08:30.920Z,58.90
2019-05-20T16:11:01.152Z,59.00
2019-05-20T16:13:32.006Z,59.00
2019-05-20T16:16:02.427Z,59.00
2019-05-20T16:18:32.775Z,58.90
2019-05-20T16:21:03.427Z,59.00
2019-05-20T16:23:35.065Z,58.90
2019-05-20T16:26:05.919Z,58.80
2019-05-20T16:28:35.464Z,58.80
2019-05-20T16:31:04.948Z,59.10
2019-05-20T16:33:34.380Z,59.10
2019-05-20T16:36:04.058Z,59.10
2019-05-20T16:38:33.517Z,59.00
2019-05-20T16:41:03.005Z,59.20
2019-05-20T16:43:32.498Z,59.30
2019-05-20T16:46:01.908Z,59.20
2019-05-20T16:48:32.480Z,59.60
2019-05-20T16:51:01.884Z,58.80
2019-05-20T16:53:31.363Z,58.90
2019-05-20T16:56:00.853Z,59.00
2019-05-20T16:58:30.361Z,58.90
2019-05-20T17:00:59.841Z,59.10
2019-05-20T17:03:29.325Z,59.10
2019-05-20T17:05:58.725Z,59.20
2019-05-20T17:08:28.567Z,59.10
2019-05-20T17:10:59.108Z,59.20
2019-05-20T17:13:28.783Z,59.20
2019-05-20T17:15:58.244Z,59.20
2019-05-20T17:18:27.729Z,59.40
2019-05-20T17:20:57.132Z,59.70
2019-05-20T17:23:26.617Z,59.60
2019-05-20T17:25:56.045Z,59.40
2019-05-20T17:28:25.495Z,59.40
2019-05-20T17:30:55.030Z,59.50
2019-05-20T17:33:24.613Z,59.80
2019-05-20T17:35:54.043Z,59.70
2019-05-20T17:38:23.492Z,59.80
2019-05-20T17:40:52.976Z,60.30
2019-05-20T17:43:22.369Z,60.30
2019-05-20T17:45:51.865Z,60.80
2019-05-20T17:48:21.647Z,61.00
2019-05-20T17:50:51.503Z,60.90
2019-05-20T17:53:20.989Z,61.00
2019-05-20T17:55:50.545Z,60.80
2019-05-20T17:58:20.025Z,60.70
2019-05-20T18:00:49.710Z,60.70
2019-05-20T18:03:19.196Z,61.10
2019-05-20T18:05:48.678Z,61.20
2019-05-20T18:08:18.196Z,61.20
2019-05-20T18:10:48.476Z,61.10
2019-05-20T18:13:17.931Z,61.20
2019-05-20T18:15:47.450Z,61.40
2019-05-20T18:18:16.849Z,61.60
2019-05-20T18:20:46.296Z,61.90
2019-05-20T18:23:15.912Z,61.60
2019-05-20T18:25:45.322Z,61.30
2019-05-20T18:28:16.432Z,61.30
2019-05-20T18:30:45.874Z,61.40
2019-05-20T18:33:15.463Z,61.10
2019-05-20T18:35:46.024Z,60.80
2019-05-20T18:38:18.927Z,61.10
2019-05-20T18:40:48.332Z,61.10
2019-05-20T18:43:24.161Z,60.90
2019-05-20T18:45:53.608Z,60.70
2019-05-20T18:48:23.090Z,60.90
2019-05-20T18:50:52.604Z,60.90
2019-05-20T18:53:22.252Z,61.30
2019-05-20T18:55:51.712Z,61.20
2019-05-20T18:58:21.238Z,61.40
2019-05-20T19:00:50.773Z,61.20
2019-05-20T19:03:20.762Z,61.00
2019-05-20T19:05:50.549Z,60.60
2019-05-20T19:08:20.231Z,60.90
2019-05-20T19:10:49.717Z,61.10
2019-05-20T19:13:19.111Z,61.20
2019-05-20T19:15:48.539Z,61.50
2019-05-20T19:18:18.604Z,61.10
2019-05-20T19:20:48.016Z,61.50
2019-05-20T19:23:17.442Z,61.00
2019-05-20T19:25:46.904Z,61.40
2019-05-20T19:28:16.304Z,61.30
2019-05-20T19:30:45.726Z,61.50
2019-05-20T19:33:15.456Z,61.40
2019-05-20T19:35:45.048Z,61.50
2019-05-20T19:38:15.517Z,61.50
2019-05-20T19:40:45.129Z,61.30
2019-05-20T19:43:14.940Z,61.50
2019-05-20T19:45:44.421Z,61.50
2019-05-20T19:48:13.824Z,61.50
2019-05-20T19:50:43.722Z,61.60
2019-05-20T19:53:13.391Z,61.90
2019-05-20T19:55:42.856Z,61.70
2019-05-20T19:58:12.257Z,61.50
2019-05-20T20:00:43.487Z,61.50
2019-05-20T20:03:13.853Z,61.70
2019-05-20T20:05:43.272Z,61.30
2019-05-20T20:08:12.859Z,61.40
2019-05-20T20:10:42.508Z,61.40
2019-05-20T20:13:12.195Z,61.50
2019-05-20T20:15:42.707Z,61.70
2019-05-20T20:18:12.196Z,61.60
2019-05-20T20:20:42.560Z,61.60
2019-05-20T20:23:12.036Z,61.90
2019-05-20T20:25:41.459Z,61.90
2019-05-20T20:28:10.849Z,61.80
2019-05-20T20:30:40.250Z,61.50
2019-05-20T20:33:09.744Z,61.70
2019-05-20T20:35:39.237Z,61.80
2019-05-20T20:38:08.629Z,61.60
2019-05-20T20:40:38.040Z,61.60
2019-05-20T20:43:07.447Z,61.70
2019-05-20T20:45:36.979Z,61.30
2019-05-20T20:48:07.036Z,61.60
2019-05-20T20:50:36.494Z,61.60
2019-05-20T20:53:06.054Z,61.60
2019-05-20T20:55:35.744Z,61.60
2019-05-20T20:58:05.220Z,61.60
2019-05-20T21:00:35.169Z,61.60
2019-05-20T21:03:06.249Z,61.60
2019-05-20T21:05:35.939Z,61.80
2019-05-20T21:08:05.429Z,61.80
2019-05-20T21:10:34.837Z,61.80
2019-05-20T21:13:09.059Z,61.70
2019-05-20T21:15:38.776Z,61.60
2019-05-20T21:18:08.291Z,61.30
2019-05-20T21:20:37.867Z,61.40
2019-05-20T21:23:07.270Z,61.20
2019-05-20T21:25:36.860Z,61.50
2019-05-20T21:28:06.248Z,61.20
2019-05-20T21:30:37.545Z,61.10
2019-05-20T21:33:09.497Z,61.10
2019-05-20T21:35:38.148Z,61.00
2019-05-20T21:38:10.609Z,61.20
2019-05-20T21:40:40.326Z,61.30
2019-05-20T21:43:09.997Z,61.10
2019-05-20T21:45:39.606Z,61.10
2019-05-20T21:48:09.008Z,61.10
2019-05-20T21:50:40.042Z,60.90
2019-05-20T21:53:09.572Z,60.70
2019-05-20T21:55:42.211Z,60.90
2019-05-20T21:58:11.704Z,60.80
2019-05-20T22:00:47.137Z,61.20
2019-05-20T22:03:24.561Z,60.90
2019-05-20T22:05:50.946Z,60.90
2019-05-20T22:08:20.342Z,61.10
2019-05-20T22:10:51.093Z,60.90
2019-05-20T22:13:20.572Z,61.00
2019-05-20T22:15:50.105Z,61.00
2019-05-20T22:18:19.486Z,60.90
2019-05-20T22:20:48.916Z,60.90
2019-05-20T22:23:22.865Z,60.90
2019-05-20T22:25:52.847Z,60.80
2019-05-20T22:28:22.387Z,60.90
2019-05-20T22:30:51.879Z,61.00
2019-05-20T22:33:21.287Z,61.70
2019-05-20T22:35:50.815Z,61.00
2019-05-20T22:38:20.211Z,60.80
2019-05-20T22:40:49.732Z,60.90
2019-05-20T22:43:19.165Z,60.90
2019-05-20T22:45:48.616Z,60.90
2019-05-20T22:48:19.088Z,61.00
2019-05-20T22:50:49.092Z,60.80
2019-05-20T22:53:18.516Z,60.70
2019-05-20T22:55:47.986Z,60.80
2019-05-20T22:58:17.402Z,60.80
2019-05-20T23:00:46.800Z,60.70
2019-05-20T23:03:16.310Z,60.70
2019-05-20T23:05:45.708Z,60.80
2019-05-20T23:08:15.829Z,60.70
2019-05-20T23:10:45.230Z,60.50
2019-05-20T23:13:14.670Z,60.50
2019-05-20T23:15:44.176Z,60.60
2019-05-20T23:18:13.604Z,60.60
2019-05-20T23:20:43.076Z,60.50
2019-05-20T23:23:12.553Z,60.70
2019-05-20T23:25:42.021Z,60.60
2019-05-20T23:28:11.544Z,60.90
2019-05-20T23:30:41.089Z,60.80
2019-05-20T23:33:10.569Z,60.60
2019-05-20T23:35:39.979Z,60.50
2019-05-20T23:38:09.456Z,60.40
2019-05-20T23:40:38.928Z,60.60
2019-05-20T23:43:08.329Z,60.30
2019-05-20T23:45:37.805Z,60.40
2019-05-20T23:48:07.199Z,60.30
2019-05-20T23:50:36.608Z,60.20
2019-05-20T23:53:06.090Z,59.90
2019-05-20T23:55:35.580Z,60.10
2019-05-20T23:58:05.127Z,59.90
